Time;durP1;ratioP1;P1;durP2;ratioP2;P2;SDS_P1;SDS_P2;PMS_P1;PMS_P2;Temp;Humidity;BMP_temperature;BMP_pressure;BME280_temperature;BME280_humidity;BME280_pressure;Samples;Min_cycle;Max_cycle;Signal;HPM_P1;HPM_P2
2021/07/13 00:01:01;;;;;;;9.02;6.88;;;;;;;18.52;94.52;99494.47;4995428;28;20054;-72
2021/07/13 00:03:28;;;;;;;10.20;7.25;;;;;;;18.65;94.66;99510.25;4994460;28;20060;-72
2021/07/13 00:05:55;;;;;;;9.38;7.82;;;;;;;18.62;95.23;99502.44;4998962;28;20062;-72
2021/07/13 00:08:21;;;;;;;10.60;8.98;;;;;;;18.66;94.99;99517.34;4997711;28;20326;-72
2021/07/13 00:10:48;;;;;;;9.15;7.82;;;;;;;18.71;94.94;99515.00;4999186;28;20132;-71
2021/07/13 00:13:15;;;;;;;12.68;8.48;;;;;;;18.73;94.11;99507.56;4998745;28;20440;-72
2021/07/13 00:15:43;;;;;;;10.90;7.75;;;;;;;18.67;94.71;99519.03;4998798;28;20081;-72
2021/07/13 00:18:11;;;;;;;9.52;7.57;;;;;;;18.69;95.58;99516.16;4998759;28;20050;-72
2021/07/13 00:20:38;;;;;;;14.07;8.60;;;;;;;18.65;94.57;99503.97;4998596;28;20105;-72
2021/07/13 00:23:05;;;;;;;10.80;8.18;;;;;;;18.73;94.53;99504.00;4998538;28;20329;-72
2021/07/13 00:25:33;;;;;;;10.77;7.90;;;;;;;18.80;94.65;99510.44;4999050;28;20721;-75
2021/07/13 00:28:00;;;;;;;9.98;7.75;;;;;;;18.84;94.06;99492.03;4998621;28;20050;-71
2021/07/13 00:30:27;;;;;;;14.32;7.78;;;;;;;18.73;94.53;99493.19;4998729;28;20047;-72
2021/07/13 00:32:53;;;;;;;8.40;7.47;;;;;;;18.67;94.81;99483.03;4997549;28;20058;-72
2021/07/13 00:35:21;;;;;;;12.75;8.02;;;;;;;18.70;94.99;99482.72;4998294;28;20046;-72
2021/07/13 00:37:48;;;;;;;8.40;7.60;;;;;;;18.67;95.25;99488.44;4997320;28;20503;-71
2021/07/13 00:40:20;;;;;;;9.63;8.48;;;;;;;18.66;95.38;99486.75;4998628;28;20050;-71
2021/07/13 00:42:48;;;;;;;11.50;7.68;;;;;;;18.67;95.78;99483.03;4998541;28;20082;-72
2021/07/13 00:45:16;;;;;;;11.07;8.52;;;;;;;18.67;94.86;99485.72;4998230;28;20334;-72
2021/07/13 00:47:50;;;;;;;10.32;8.88;;;;;;;18.68;95.10;99484.75;4998846;28;20054;-72
2021/07/13 00:50:19;;;;;;;9.02;8.15;;;;;;;18.65;95.48;99476.94;4998602;28;20105;-72
2021/07/13 00:52:47;;;;;;;10.00;8.73;;;;;;;18.59;95.40;99473.06;4998524;28;20050;-71
2021/07/13 00:55:15;;;;;;;11.57;9.45;;;;;;;18.57;95.67;99470.50;4981484;28;20101;-72
2021/07/13 00:57:42;;;;;;;11.02;8.77;;;;;;;18.71;95.31;99481.72;4998362;28;20101;-71
2021/07/13 01:00:12;;;;;;;12.48;8.13;;;;;;;18.68;95.85;99485.59;4998276;28;20054;-71
2021/07/13 01:02:39;;;;;;;9.57;8.18;;;;;;;18.69;94.84;99494.53;4998156;28;20109;-72
2021/07/13 01:05:14;;;;;;;9.20;8.20;;;;;;;18.66;95.07;99492.16;4998858;28;20408;-72
2021/07/13 01:07:56;;;;;;;8.73;7.88;;;;;;;18.65;95.12;99501.28;4996770;28;20104;-72
2021/07/13 01:10:45;;;;;;;8.25;6.95;;;;;;;18.67;95.69;99493.84;4998186;28;20054;-71
2021/07/13 01:13:50;;;;;;;11.57;7.38;;;;;;;18.69;95.53;99498.06;4997714;28;20438;-71
2021/07/13 01:16:27;;;;;;;8.85;7.50;;;;;;;18.59;95.07;99484.69;4997647;28;20054;-72
2021/07/13 01:18:53;;;;;;;8.60;7.18;;;;;;;18.70;95.69;99513.28;4997665;28;20050;-72
2021/07/13 01:21:36;;;;;;;12.40;8.23;;;;;;;18.70;95.12;99507.03;4997536;28;20054;-72
2021/07/13 01:24:44;;;;;;;10.00;8.38;;;;;;;18.68;95.50;99501.78;4996703;28;20093;-72
2021/07/13 01:27:50;;;;;;;11.57;8.18;;;;;;;18.63;95.67;99501.44;4997689;28;20050;-73
2021/07/13 01:30:30;;;;;;;10.55;8.02;;;;;;;18.66;95.58;99501.13;4997849;28;20104;-73
2021/07/13 01:33:02;;;;;;;9.02;8.13;;;;;;;18.63;95.57;99495.19;4997497;28;20105;-73
2021/07/13 01:35:41;;;;;;;11.07;8.93;;;;;;;18.64;95.77;99500.44;4997422;28;20092;-73
2021/07/13 01:38:11;;;;;;;10.38;8.05;;;;;;;18.58;95.53;99495.69;4997553;28;20050;-73
2021/07/13 01:40:40;;;;;;;12.40;8.67;;;;;;;18.57;96.26;99497.53;4997573;28;20058;-71
2021/07/13 01:43:10;;;;;;;10.27;8.73;;;;;;;18.41;96.40;99481.25;4997170;28;20097;-71
2021/07/13 01:45:40;;;;;;;10.95;9.32;;;;;;;18.50;96.48;99496.50;4997491;28;20120;-71
2021/07/13 01:48:10;;;;;;;11.60;8.18;;;;;;;18.41;96.84;99497.47;4997359;28;20134;-73
2021/07/13 01:50:39;;;;;;;10.80;8.37;;;;;;;18.38;98.01;99497.78;4997484;28;20046;-73
2021/07/13 01:53:06;;;;;;;10.57;8.57;;;;;;;18.39;98.22;99494.91;4997325;28;20050;-73
2021/07/13 01:55:35;;;;;;;10.98;8.75;;;;;;;18.40;98.84;99485.81;4996928;28;20738;-73
2021/07/13 01:58:02;;;;;;;9.15;7.82;;;;;;;18.42;99.09;99494.59;4996824;28;20050;-73
2021/07/13 02:00:30;;;;;;;10.48;7.97;;;;;;;18.42;98.96;99493.75;4995825;28;20432;-72
2021/07/13 02:02:59;;;;;;;9.80;8.05;;;;;;;18.27;99.08;99464.66;4995993;28;20444;-73
2021/07/13 02:05:27;;;;;;;10.55;8.27;;;;;;;18.41;99.63;99484.78;4997105;28;20042;-73
2021/07/13 02:07:59;;;;;;;12.43;8.27;;;;;;;18.39;99.64;99489.53;4995627;28;20050;-73
2021/07/13 02:10:26;;;;;;;9.93;8.38;;;;;;;18.39;99.84;99492.22;4996711;28;20436;-73
2021/07/13 02:12:53;;;;;;;10.93;8.25;;;;;;;18.31;99.73;99487.63;4996615;28;20432;-73
2021/07/13 02:15:19;;;;;;;13.40;8.55;;;;;;;18.30;99.94;99483.22;4996465;28;20224;-73
2021/07/13 02:17:50;;;;;;;12.30;8.48;;;;;;;18.24;100.00;99467.66;4996873;28;20073;-73
2021/07/13 02:20:19;;;;;;;10.32;8.88;;;;;;;18.28;100.00;99477.13;4996693;28;20109;-73
2021/07/13 02:22:46;;;;;;;11.70;7.57;;;;;;;18.29;100.00;99480.66;4995646;28;20124;-73
2021/07/13 02:25:14;;;;;;;10.57;7.93;;;;;;;18.29;100.00;99476.13;4996598;28;20054;-73
2021/07/13 02:27:45;;;;;;;9.10;8.07;;;;;;;18.32;100.00;99483.91;4995690;28;20507;-73
2021/07/13 02:30:12;;;;;;;12.98;7.80;;;;;;;18.31;100.00;99484.91;4996294;28;20112;-73
2021/07/13 02:32:51;;;;;;;9.90;7.75;;;;;;;18.36;100.00;99489.00;4996555;28;20078;-73
2021/07/13 02:35:26;;;;;;;11.13;7.93;;;;;;;18.32;100.00;99483.06;4995441;28;20054;-71
2021/07/13 02:37:53;;;;;;;8.75;7.65;;;;;;;18.37;100.00;99487.97;4996371;28;20108;-72
2021/07/13 02:40:20;;;;;;;8.98;7.93;;;;;;;18.38;100.00;99493.22;4996280;28;20050;-71
2021/07/13 02:42:48;;;;;;;12.15;7.65;;;;;;;18.36;100.00;99481.72;4995535;28;20050;-72
2021/07/13 02:45:16;;;;;;;8.98;8.02;;;;;;;18.38;100.00;99478.88;4995196;28;20057;-72
2021/07/13 02:47:47;;;;;;;9.90;8.02;;;;;;;18.36;100.00;99473.63;4996369;28;20054;-72
2021/07/13 02:50:15;;;;;;;;;;;;;;;18.37;100.00;99471.78;4995448;28;20054;-72
2021/07/13 02:52:43;;;;;;;9.30;8.15;;;;;;;18.36;100.00;99480.88;4996069;28;19929;-72
2021/07/13 02:55:15;;;;;;;10.30;8.48;;;;;;;18.38;100.00;99479.72;4994820;28;20050;-72
2021/07/13 02:57:45;;;;;;;8.25;7.45;;;;;;;18.30;100.00;99464.31;4996316;28;20051;-72
2021/07/13 03:00:14;;;;;;;11.52;8.48;;;;;;;18.27;100.00;99470.06;4996001;28;20071;-72
2021/07/13 03:02:44;;;;;;;9.48;7.80;;;;;;;18.27;100.00;99470.06;4996084;28;20359;-72
2021/07/13 03:05:13;;;;;;;9.90;7.68;;;;;;;18.25;100.00;99460.41;4995936;28;20042;-72
2021/07/13 03:07:40;;;;;;;11.27;7.85;;;;;;;18.30;100.00;99463.47;4995713;28;20113;-72
2021/07/13 03:10:08;;;;;;;8.27;7.47;;;;;;;18.27;100.00;99459.25;4996051;28;20046;-72
2021/07/13 03:12:34;;;;;;;9.88;7.75;;;;;;;18.15;100.00;99442.44;4996017;28;20058;-72
2021/07/13 03:15:03;;;;;;;8.95;7.80;;;;;;;18.22;100.00;99458.88;4995876;28;20046;-72
2021/07/13 03:17:30;;;;;;;11.88;7.60;;;;;;;18.16;100.00;99446.00;4995821;28;20046;-72
2021/07/13 03:19:56;;;;;;;12.65;8.00;;;;;;;18.26;100.00;99460.22;4994766;28;20054;-72
2021/07/13 03:22:27;;;;;;;9.50;7.22;;;;;;;18.27;100.00;99448.44;4995910;28;20108;-72
2021/07/13 03:24:59;;;;;;;8.80;7.50;;;;;;;18.24;100.00;99451.44;4995743;28;20113;-72
2021/07/13 03:27:26;;;;;;;9.63;7.50;;;;;;;18.20;100.00;99452.81;4995816;28;20051;-72
2021/07/13 03:29:55;;;;;;;8.48;7.60;;;;;;;18.22;100.00;99458.00;4995823;28;20125;-72
2021/07/13 03:32:23;;;;;;;10.35;7.72;;;;;;;18.25;100.00;99461.25;4995475;28;20330;-72
2021/07/13 03:34:50;;;;;;;8.45;7.32;;;;;;;18.20;100.00;99458.19;4995432;28;20487;-72
2021/07/13 03:37:17;;;;;;;10.40;7.22;;;;;;;18.20;100.00;99447.41;4995516;28;20108;-72
2021/07/13 03:39:45;;;;;;;9.75;7.30;;;;;;;18.18;99.75;99447.56;4998427;28;20068;-72
2021/07/13 03:42:13;;;;;;;8.82;7.15;;;;;;;18.12;100.00;99433.81;4999573;28;20340;-72
2021/07/13 03:44:40;;;;;;;12.13;7.57;;;;;;;18.16;100.00;99443.31;4999581;28;20042;-72
2021/07/13 03:47:12;;;;;;;8.90;6.90;;;;;;;18.15;100.00;99445.16;4999656;28;20063;-72
2021/07/13 03:49:39;;;;;;;10.73;7.68;;;;;;;18.11;100.00;99446.50;4999493;28;20050;-72
2021/07/13 03:52:07;;;;;;;9.23;7.75;;;;;;;18.07;100.00;99439.72;4999549;28;20061;-72
2021/07/13 03:54:34;;;;;;;10.88;7.30;;;;;;;18.02;100.00;99434.78;4999281;28;20101;-72
2021/07/13 03:57:01;;;;;;;9.38;7.45;;;;;;;18.03;100.00;99441.84;4999167;28;20054;-72
2021/07/13 03:59:28;;;;;;;9.80;7.63;;;;;;;17.96;100.00;99432.72;4999378;28;20200;-72
2021/07/13 04:01:55;;;;;;;10.90;7.70;;;;;;;18.00;100.00;99430.53;4999324;28;20054;-72
2021/07/13 04:04:23;;;;;;;10.10;7.80;;;;;;;18.08;100.00;99433.31;4982056;28;20101;-72
2021/07/13 04:06:50;;;;;;;7.45;6.63;;;;;;;18.05;100.00;99423.66;4997751;28;20190;-72
2021/07/13 04:09:16;;;;;;;8.30;7.07;;;;;;;18.09;100.00;99432.28;4999129;28;20100;-72
2021/07/13 04:11:44;;;;;;;8.10;6.95;;;;;;;18.03;100.00;99432.94;4998908;28;20058;-72
2021/07/13 04:14:12;;;;;;;9.63;7.68;;;;;;;18.00;100.00;99435.94;4998851;28;20054;-72
2021/07/13 04:16:39;;;;;;;12.32;7.50;;;;;;;17.90;100.00;99431.50;4998919;28;20125;-72
2021/07/13 04:19:05;;;;;;;9.32;7.28;;;;;;;17.98;100.00;99441.47;4999055;28;20054;-72
2021/07/13 04:21:32;;;;;;;8.65;7.30;;;;;;;17.96;100.00;99442.66;4998900;28;20050;-74
2021/07/13 04:23:59;;;;;;;8.85;7.55;;;;;;;17.91;100.00;99432.34;4998001;28;20053;-72
2021/07/13 04:26:26;;;;;;;8.40;7.00;;;;;;;17.85;100.00;99432.97;4998710;28;20046;-72
2021/07/13 04:28:52;;;;;;;8.25;7.32;;;;;;;17.85;100.00;99441.06;4998585;28;20058;-72
2021/07/13 04:31:19;;;;;;;10.40;7.18;;;;;;;17.68;100.00;99419.38;4997501;28;20424;-72
2021/07/13 04:33:47;;;;;;;10.05;7.30;;;;;;;17.78;100.00;99440.88;4998592;28;20097;-72
2021/07/13 04:36:13;;;;;;;11.90;7.95;;;;;;;17.80;100.00;99448.81;4998498;28;20108;-72
2021/07/13 04:38:41;;;;;;;10.60;7.43;;;;;;;17.78;100.00;99447.09;4998599;28;20058;-72
2021/07/13 04:41:08;;;;;;;8.93;7.97;;;;;;;17.80;100.00;99446.13;4998544;28;20348;-72
2021/07/13 04:43:35;;;;;;;10.18;8.68;;;;;;;17.76;100.00;99438.31;4998639;28;20086;-72
2021/07/13 04:46:02;;;;;;;11.15;7.60;;;;;;;17.76;100.00;99446.41;4998337;28;20105;-72
2021/07/13 04:48:28;;;;;;;7.00;6.32;;;;;;;17.73;100.00;99452.13;4998463;28;20050;-72
2021/07/13 04:50:55;;;;;;;9.68;7.82;;;;;;;17.73;100.00;99435.94;4997707;28;20122;-72
2021/07/13 04:53:22;;;;;;;8.55;6.53;;;;;;;17.71;100.00;99440.63;4998231;28;20105;-72
2021/07/13 04:55:48;;;;;;;9.13;6.80;;;;;;;17.71;100.00;99445.22;4997960;28;20091;-72
2021/07/13 04:58:15;;;;;;;10.70;7.43;;;;;;;17.69;100.00;99439.13;4998366;28;20050;-72
2021/07/13 05:00:41;;;;;;;9.18;7.30;;;;;;;17.68;100.00;99440.09;4997535;28;20141;-71
2021/07/13 05:03:08;;;;;;;10.07;7.05;;;;;;;17.71;100.00;99443.34;4998030;28;20436;-72
2021/07/13 05:05:40;;;;;;;8.32;6.65;;;;;;;17.67;100.00;99444.69;4997641;28;20125;-72
2021/07/13 05:08:06;;;;;;;11.25;7.22;;;;;;;17.64;100.00;99442.28;4996569;28;20428;-72
2021/07/13 05:10:33;;;;;;;8.23;7.25;;;;;;;17.56;100.00;99434.13;4997650;28;20054;-73
2021/07/13 05:13:00;;;;;;;8.63;6.90;;;;;;;17.61;100.00;99439.91;4997178;28;20444;-73
2021/07/13 05:15:26;;;;;;;7.82;7.03;;;;;;;17.56;100.00;99435.00;4996982;28;20038;-73
2021/07/13 05:17:56;;;;;;;7.38;6.60;;;;;;;17.58;100.00;99437.50;4977089;28;20138;-73
2021/07/13 05:20:23;;;;;;;8.75;7.05;;;;;;;17.51;100.00;99432.75;4987506;28;20050;-76
2021/07/13 05:22:57;;;;;;;8.85;6.93;;;;;;;17.61;100.00;99437.22;4997955;28;20674;-77
2021/07/13 05:25:29;;;;;;;8.88;7.18;;;;;;;17.59;100.00;99445.44;4997278;28;20078;-77
2021/07/13 05:27:55;;;;;;;9.60;7.65;;;;;;;17.56;100.00;99444.91;4997608;28;20055;-73
2021/07/13 05:30:23;;;;;;;11.00;7.13;;;;;;;17.52;100.00;99449.78;4996908;28;20046;-74
2021/07/13 05:32:53;;;;;;;8.40;7.28;;;;;;;17.49;100.00;99448.25;4996740;28;20053;-74
2021/07/13 05:35:20;;;;;;;9.38;7.55;;;;;;;17.51;100.00;99442.69;4996711;28;20046;-74
2021/07/13 05:37:48;;;;;;;12.30;7.57;;;;;;;17.53;100.00;99439.84;4996496;28;20042;-74
2021/07/13 05:40:15;;;;;;;12.65;8.00;;;;;;;17.56;100.00;99440.38;4996717;28;20062;-73
2021/07/13 05:42:42;;;;;;;9.65;7.57;;;;;;;17.51;100.00;99438.16;4996932;28;20050;-72
2021/07/13 05:45:10;;;;;;;11.52;8.10;;;;;;;17.58;100.00;99442.91;4996071;28;20423;-73
2021/07/13 05:47:36;;;;;;;13.52;8.05;;;;;;;17.60;100.00;99443.63;5026396;28;20051;-74
2021/07/13 05:50:10;;;;;;;12.75;7.93;;;;;;;17.58;100.00;99440.19;4997607;28;20120;-76
2021/07/13 05:52:37;;;;;;;10.82;7.70;;;;;;;17.54;100.00;99436.16;4997154;28;20388;-77
2021/07/13 05:55:05;;;;;;;12.38;7.82;;;;;;;17.59;100.00;99447.31;4996971;28;20482;-76
2021/07/13 05:57:32;;;;;;;11.20;8.15;;;;;;;17.59;100.00;99447.31;4996719;28;20042;-76
2021/07/13 05:59:59;;;;;;;9.25;8.38;;;;;;;17.54;100.00;99450.47;4996536;28;20050;-76
2021/07/13 06:02:26;;;;;;;10.48;8.32;;;;;;;17.59;100.00;99458.13;4996698;28;20050;-75
2021/07/13 06:04:53;;;;;;;12.05;8.38;;;;;;;17.54;100.00;99453.16;4997064;28;20046;-78
2021/07/13 06:07:20;;;;;;;12.02;9.00;;;;;;;17.58;100.00;99461.78;4995551;28;20126;-78
2021/07/13 06:09:47;;;;;;;11.02;8.95;;;;;;;17.56;100.00;99453.88;4998774;28;20062;-73
2021/07/13 06:12:14;;;;;;;10.55;8.73;;;;;;;17.56;100.00;99466.50;4998102;28;20452;-70
2021/07/13 06:14:40;;;;;;;10.23;8.50;;;;;;;17.46;100.00;99453.97;4996049;28;20384;-75
2021/07/13 06:17:07;;;;;;;11.30;8.88;;;;;;;17.54;100.00;99468.53;4996474;28;20069;-73
2021/07/13 06:19:34;;;;;;;10.75;9.15;;;;;;;17.59;100.00;99471.59;4996035;28;20050;-72
2021/07/13 06:22:02;;;;;;;17.20;9.50;;;;;;;17.61;100.00;99469.59;4993767;28;20058;-74
2021/07/13 06:24:29;;;;;;;14.90;9.85;;;;;;;17.60;100.00;99465.19;4995558;28;20344;-73
2021/07/13 06:26:55;;;;;;;11.25;9.70;;;;;;;17.48;100.00;99460.03;4996307;28;20054;-73
2021/07/13 06:29:23;;;;;;;13.10;9.50;;;;;;;17.59;100.00;99479.69;4994873;28;20408;-74
2021/07/13 06:31:51;;;;;;;11.07;9.57;;;;;;;17.52;100.00;99476.75;4996342;28;20057;-74
2021/07/13 06:34:19;;;;;;;12.27;10.32;;;;;;;17.48;100.00;99470.84;4996236;28;20474;-72
2021/07/13 06:36:46;;;;;;;15.88;10.10;;;;;;;17.48;100.00;99470.84;4993689;28;20099;-72
2021/07/13 06:39:14;;;;;;;13.40;10.02;;;;;;;17.52;100.00;99476.75;4994085;28;20046;-74
2021/07/13 06:41:40;;;;;;;14.90;10.70;;;;;;;17.55;100.00;99475.59;4995032;28;20432;-73
2021/07/13 06:44:07;;;;;;;12.30;10.20;;;;;;;17.60;100.00;99473.28;4995115;28;20054;-74
2021/07/13 06:46:34;;;;;;;13.40;9.95;;;;;;;17.63;100.00;99470.28;4995156;28;20046;-72
2021/07/13 06:49:02;;;;;;;15.02;10.35;;;;;;;17.61;100.00;99469.59;4995200;28;20133;-72
2021/07/13 06:51:29;;;;;;;11.90;9.48;;;;;;;17.65;100.00;99468.25;4995478;28;20050;-74
2021/07/13 06:53:56;;;;;;;9.73;8.60;;;;;;;17.60;100.00;99467.91;4995466;28;20061;-71
2021/07/13 06:56:22;;;;;;;10.88;9.13;;;;;;;17.48;100.00;99476.22;4994915;28;20046;-74
2021/07/13 06:58:49;;;;;;;10.20;9.25;;;;;;;17.38;100.00;99473.59;4995860;28;20364;-71
2021/07/13 07:01:16;;;;;;;11.88;10.68;;;;;;;17.34;100.00;99476.78;4994873;28;20185;-71
2021/07/13 07:03:42;;;;;;;12.63;11.32;;;;;;;17.42;100.00;99474.16;4995672;28;20351;-72
2021/07/13 07:06:09;;;;;;;12.68;11.13;;;;;;;17.46;100.00;99478.25;4994705;28;20383;-74
2021/07/13 07:08:36;;;;;;;13.50;11.60;;;;;;;17.49;100.00;99475.22;4994562;28;20460;-72
2021/07/13 07:11:10;;;;;;;12.43;10.52;;;;;;;17.54;100.00;99468.53;4995926;28;20129;-73
2021/07/13 07:13:37;;;;;;;15.02;10.60;;;;;;;17.59;100.00;99466.22;4995246;28;20086;-73
2021/07/13 07:16:05;;;;;;;11.13;10.02;;;;;;;17.59;100.00;99468.91;4995870;28;20046;-72
2021/07/13 07:18:32;;;;;;;11.80;10.35;;;;;;;17.61;100.00;99467.72;4995613;28;20575;-71
2021/07/13 07:20:58;;;;;;;13.50;11.25;;;;;;;17.68;100.00;99469.78;4994899;28;20050;-72
2021/07/13 07:23:25;;;;;;;15.77;12.35;;;;;;;17.71;100.00;99470.31;5027144;28;20058;-73
2021/07/13 07:25:52;;;;;;;13.85;11.75;;;;;;;17.76;100.00;99459.91;4995622;28;20388;-73
2021/07/13 07:28:20;;;;;;;15.15;11.45;;;;;;;17.82;100.00;99465.69;4995504;28;20058;-73
2021/07/13 07:30:47;;;;;;;14.27;12.45;;;;;;;17.75;100.00;99460.91;5026950;28;20126;-73
2021/07/13 07:33:13;;;;;;;13.50;11.98;;;;;;;17.78;100.00;99468.69;5027275;28;20101;-73
2021/07/13 07:35:41;;;;;;;14.43;12.30;;;;;;;17.67;100.00;99474.34;4994571;28;20096;-72
2021/07/13 07:38:09;;;;;;;14.75;12.80;;;;;;;17.67;100.00;99471.66;4995672;28;20054;-74
2021/07/13 07:40:36;;;;;;;13.73;12.30;;;;;;;17.63;100.00;99467.56;4995687;28;20058;-73
2021/07/13 07:43:04;;;;;;;14.77;12.95;;;;;;;17.68;100.00;99476.06;4995767;28;20062;-72
2021/07/13 07:45:31;;;;;;;15.43;13.93;;;;;;;17.70;100.00;99479.44;4995573;28;20058;-71
2021/07/13 07:47:58;;;;;;;16.15;14.45;;;;;;;17.71;100.00;99478.41;4995680;28;20128;-71
2021/07/13 07:50:25;;;;;;;16.35;13.60;;;;;;;17.73;100.00;99481.84;4995621;28;20128;-74
2021/07/13 07:52:51;;;;;;;16.73;14.93;;;;;;;17.73;100.00;99484.53;4995386;28;20057;-71
2021/07/13 07:55:23;;;;;;;15.57;13.98;;;;;;;17.70;100.00;99479.44;4995471;28;20085;-73
2021/07/13 07:57:51;;;;;;;16.35;14.20;;;;;;;17.70;100.00;99487.53;4995612;28;20054;-73
2021/07/13 08:00:18;;;;;;;17.13;14.65;;;;;;;17.70;100.00;99484.00;4994475;28;20054;-73
2021/07/13 08:02:46;;;;;;;16.70;14.68;;;;;;;17.69;100.00;99488.53;4995345;28;20046;-73
2021/07/13 08:05:14;;;;;;;18.70;15.48;;;;;;;17.63;100.00;99479.22;4995237;28;20062;-73
2021/07/13 08:07:44;;;;;;;18.20;16.30;;;;;;;17.61;100.00;99480.38;4993816;28;20066;-71
2021/07/13 08:10:13;;;;;;;17.05;15.35;;;;;;;17.57;100.00;99490.63;4995682;28;20054;-72
2021/07/13 08:12:42;;;;;;;18.98;15.60;;;;;;;17.50;100.00;99481.47;4995501;28;20058;-72
2021/07/13 08:15:09;;;;;;;19.10;16.25;;;;;;;17.45;100.00;99478.38;4995849;28;20436;-74
2021/07/13 08:17:36;;;;;;;18.20;15.77;;;;;;;17.46;100.00;99471.97;4996134;28;20058;-74
2021/07/13 08:20:05;;;;;;;19.05;17.02;;;;;;;17.44;100.00;99474.84;4996372;28;20061;-74
2021/07/13 08:22:33;;;;;;;20.77;17.77;;;;;;;17.41;100.00;99475.16;4995878;28;20082;-76
2021/07/13 08:25:01;;;;;;;18.85;16.90;;;;;;;17.47;100.00;99479.94;4994356;28;20112;-78
2021/07/13 08:27:29;;;;;;;18.85;16.85;;;;;;;17.46;100.00;99477.38;4994609;28;21037;-75
2021/07/13 08:29:56;;;;;;;20.13;17.50;;;;;;;17.50;100.00;99476.06;4997758;28;20065;-78
2021/07/13 08:32:23;;;;;;;24.23;19.30;;;;;;;17.56;100.00;99478.16;4991717;28;20046;-73
2021/07/13 08:34:50;;;;;;;19.48;17.48;;;;;;;17.58;100.00;99470.75;4998345;28;20050;-74
2021/07/13 08:37:20;;;;;;;20.85;18.05;;;;;;;17.56;100.00;99470.06;4998173;28;20095;-74
2021/07/13 08:39:48;;;;;;;20.88;18.13;;;;;;;17.47;100.00;99463.75;4996813;28;20050;-76
2021/07/13 08:42:16;;;;;;;22.45;19.17;;;;;;;17.54;100.00;99473.91;4998585;28;20074;-76
2021/07/13 08:44:43;;;;;;;20.17;18.02;;;;;;;17.58;100.00;99475.28;4998338;28;20053;-73
2021/07/13 08:47:15;;;;;;;24.05;19.83;;;;;;;17.56;100.00;99477.28;4998258;28;20104;-72
2021/07/13 08:49:45;;;;;;;22.25;19.75;;;;;;;17.56;100.00;99466.50;4998559;28;20104;-74
2021/07/13 08:52:13;;;;;;;;;;;;;;;17.47;100.00;99470.97;4998922;28;20054;-76
2021/07/13 08:54:39;;;;;;;24.05;21.48;;;;;;;17.49;100.00;99467.13;4997436;28;19926;-73
2021/07/13 08:57:09;;;;;;;24.15;21.52;;;;;;;17.53;100.00;99456.03;4998206;28;20050;-75
2021/07/13 08:59:37;;;;;;;25.33;21.77;;;;;;;17.65;100.00;99463.72;4997318;28;20058;-76
2021/07/13 09:02:04;;;;;;;24.88;19.25;;;;;;;17.60;100.00;99471.44;4998107;28;20105;-76
2021/07/13 09:04:35;;;;;;;27.08;22.15;;;;;;;17.50;100.00;99468.81;4997187;28;20089;-75
2021/07/13 09:07:06;;;;;;;28.25;21.08;;;;;;;17.45;100.00;99471.16;4997487;28;20051;-75
2021/07/13 09:09:35;;;;;;;30.23;23.70;;;;;;;17.33;100.00;99475.09;4997896;28;20109;-76
2021/07/13 09:12:11;;;;;;;28.95;24.15;;;;;;;17.28;100.00;99474.69;4996414;28;20061;-76
2021/07/13 09:14:58;;;;;;;31.17;24.52;;;;;;;17.13;100.00;99469.84;4996821;28;20054;-75
2021/07/13 09:17:38;;;;;;;35.33;27.55;;;;;;;17.27;100.00;99489.19;4997817;28;20043;-76
2021/07/13 09:20:27;;;;;;;38.47;28.48;;;;;;;17.24;100.00;99490.34;4997317;28;20321;-76
2021/07/13 09:22:56;;;;;;;36.72;25.70;;;;;;;17.28;100.00;99496.28;4997023;28;20062;-74
2021/07/13 09:25:26;;;;;;;26.17;22.10;;;;;;;17.16;100.00;99482.19;4997156;28;20105;-74
2021/07/13 09:28:15;;;;;;;32.28;24.77;;;;;;;17.20;100.00;99488.94;4996737;28;20061;-75
2021/07/13 09:30:54;;;;;;;26.20;21.75;;;;;;;17.18;100.00;99474.78;4997069;28;20116;-76
2021/07/13 09:33:23;;;;;;;27.52;22.30;;;;;;;17.11;100.00;99477.25;4997636;28;20050;-75
2021/07/13 09:36:06;;;;;;;27.02;22.48;;;;;;;17.11;100.00;99485.34;4996003;28;20100;-73
2021/07/13 09:38:40;;;;;;;28.27;23.08;;;;;;;17.04;100.00;99468.06;4996982;28;20046;-75
2021/07/13 09:41:14;;;;;;;30.23;23.02;;;;;;;17.24;100.00;99475.03;4996464;28;20061;-73
2021/07/13 09:43:40;;;;;;;;;;;;;;;17.31;100.00;99467.16;4997743;28;20055;-77
2021/07/13 09:46:25;;;;;;;28.08;22.38;;;;;;;17.34;100.00;99461.44;4996557;28;19965;-76
2021/07/13 09:49:18;;;;;;;31.02;23.52;;;;;;;17.34;100.00;99457.91;4997480;28;20054;-76
2021/07/13 09:51:58;;;;;;;37.60;26.05;;;;;;;17.41;100.00;99460.81;4996889;28;20478;-73
2021/07/13 09:54:31;;;;;;;32.20;24.30;;;;;;;17.44;100.00;99460.50;4997219;28;20376;-74
2021/07/13 09:57:01;;;;;;;33.75;26.05;;;;;;;17.36;100.00;99458.59;4997015;28;20051;-76
2021/07/13 09:59:27;;;;;;;32.53;24.92;;;;;;;17.35;100.00;99462.28;4996937;28;20065;-75
2021/07/13 10:01:54;;;;;;;29.63;24.20;;;;;;;17.20;100.00;99464.66;4996438;28;20108;-76
2021/07/13 10:04:22;;;;;;;31.25;25.20;;;;;;;17.17;100.00;99467.69;4996146;28;20360;-72
2021/07/13 10:06:51;;;;;;;31.17;25.08;;;;;;;17.16;100.00;99477.63;4996874;28;20057;-74
2021/07/13 10:09:21;;;;;;;38.58;28.58;;;;;;;17.11;100.00;99469.16;4996746;28;20322;-75
2021/07/13 10:11:48;;;;;;;38.58;28.23;;;;;;;17.16;100.00;99476.78;4995526;28;20050;-73
2021/07/13 10:14:17;;;;;;;39.83;29.65;;;;;;;17.16;100.00;99476.78;4996768;28;20440;-75
2021/07/13 10:16:44;;;;;;;37.75;29.08;;;;;;;17.19;100.00;99477.31;4996282;28;20042;-73
2021/07/13 10:19:11;;;;;;;45.03;31.45;;;;;;;17.16;100.00;99472.22;4996675;28;20112;-75
2021/07/13 10:21:38;;;;;;;41.72;30.55;;;;;;;17.23;100.00;99483.25;4995723;28;20050;-73
2021/07/13 10:24:05;;;;;;;43.45;31.20;;;;;;;17.27;100.00;99478.41;4995982;28;20047;-76
2021/07/13 10:26:46;;;;;;;45.28;31.75;;;;;;;17.30;100.00;99475.38;4990649;28;20436;-74
2021/07/13 10:29:31;;;;;;;39.47;29.23;;;;;;;17.31;100.00;99474.38;4995767;28;20380;-72
2021/07/13 10:32:03;;;;;;;36.45;27.95;;;;;;;17.30;100.00;99484.34;4993517;28;20050;-73
2021/07/13 10:34:55;;;;;;;37.00;28.13;;;;;;;17.23;100.00;99475.16;4996388;28;20105;-73
2021/07/13 10:37:27;;;;;;;40.80;28.85;;;;;;;17.28;100.00;99480.09;4994955;28;20129;-74
2021/07/13 10:39:58;;;;;;;36.85;28.13;;;;;;;17.23;100.00;99473.31;4995882;28;20054;-76
2021/07/13 10:42:42;;;;;;;;;;;;;;;17.28;100.00;99475.56;4996709;28;20416;-76
2021/07/13 10:45:31;;;;;;;37.03;27.70;;;;;;;17.32;100.00;99470.69;4996385;28;19926;-74
2021/07/13 10:48:20;;;;;;;35.92;26.25;;;;;;;17.37;100.00;99473.75;4995489;28;20050;-74
2021/07/13 10:50:54;;;;;;;36.28;28.23;;;;;;;17.36;100.00;99472.06;4995200;28;20058;-74
2021/07/13 10:53:29;;;;;;;37.13;28.40;;;;;;;17.35;100.00;99473.94;4996777;28;20491;-73
2021/07/13 10:56:10;;;;;;;38.47;29.80;;;;;;;17.37;100.00;99474.63;4993366;28;20054;-74
2021/07/13 10:58:47;;;;;;;33.80;28.10;;;;;;;17.40;100.00;99473.47;4995079;28;20046;-73
2021/07/13 11:01:15;;;;;;;45.13;30.25;;;;;;;17.40;100.00;99472.59;4996024;28;20062;-74
2021/07/13 11:03:43;;;;;;;34.22;27.73;;;;;;;17.49;100.00;99471.69;4994887;28;20054;-75
2021/07/13 11:06:37;;;;;;;35.75;28.48;;;;;;;17.47;100.00;99471.84;4996167;28;20054;-74
2021/07/13 11:09:26;;;;;;;34.80;28.58;;;;;;;17.51;100.00;99477.78;4994719;28;20141;-76
2021/07/13 11:12:01;;;;;;;34.58;27.95;;;;;;;17.55;100.00;99471.06;4995712;28;20054;-76
2021/07/13 11:14:27;;;;;;;33.50;28.52;;;;;;;17.52;100.00;99463.28;4995969;28;20054;-76
2021/07/13 11:16:54;;;;;;;35.58;29.13;;;;;;;17.59;100.00;99477.84;4995957;28;20105;-73
2021/07/13 11:19:21;;;;;;;34.50;28.38;;;;;;;17.65;100.00;99468.25;4994986;28;20058;-75
2021/07/13 11:21:50;;;;;;;37.42;29.27;;;;;;;17.72;100.00;99479.28;4994823;28;20356;-76
2021/07/13 11:24:23;;;;;;;32.20;26.38;;;;;;;17.70;100.00;99484.81;4995526;28;20058;-74
2021/07/13 11:26:53;;;;;;;32.47;25.30;;;;;;;17.72;100.00;99482.84;4994701;28;20042;-75
2021/07/13 11:29:26;;;;;;;20.60;18.25;;;;;;;17.72;100.00;99488.25;4995455;28;20369;-76
2021/07/13 11:32:02;;;;;;;19.40;17.33;;;;;;;17.74;100.00;99483.53;4995444;28;20058;-75